Swan Hills Airport

CEM5 · 艾伯塔, 加拿大

使用的METAR站距离机场34 NM。
罗盘
风向 的 风向 150° Swan Hills Airport 10/28
风向 到 风: 17 kt, 阵阵 22 kt, 5 beaufort

15 kt

7 kt
改变
0 ft 6.000 12.000 18.000 24.000 30.000
Cloud Cloud
FEW 10.000
Cloud Cloud Cloud Cloud Cloud Cloud
BKN 14.000
Cloud Cloud Cloud Cloud Cloud Cloud
BKN 22.000
METAR CYZU 281900Z 15017G22KT 15SM FEW100 BKN140 BKN220 17/05 A2989 RMK AC2AC3CI2 SLP133 DENSITY ALT 3500FT

METAR Swan Hills Airport - CEM5

Swan Hills Airport是,加拿大中的小机场。 该机场位于纬度54,67083和经度-115,41491。 该机场有一条跑道: 10/28. 该机场的伪ICAO代码为CEM5。 机场在Edmonton FIR中。

该航空气象观测是针对Whitecourt Airport在2024年5月28日 13:00, 当地时间进行的。

机场观察

风向为150°,速度为17 kt。 已测得22 kt的阵风。

可见度为15 mi。

有几云在10.000 ft的高度, 碎云在14.000 ft的高度 和 碎云在22.000 ft的高度。 破损或更高的上限为14.000 ft。

温度和风寒是17 °C。 露点为5 °C,相对湿度为45%。 海平面上的气压为29,89 inHg (QNH)。

白天

今天,太阳从05:15升起,在22:02降落。 这适用于Swan Hills Airport,世界夏令时可能有所不同。 当地时间与世界标准时间之间的时差为-6 小时。 夏令时目前正在进行中。

公司介绍

我们没有关于这个机场的公司信息。

体会

到Vliegles.nl去找飞行课程,跳伞和其他飞行体验。 浏览页面,了解Swan Hills Airport附近所有可用的活动。 你也可以使用搜索功能来寻找你所在地附近的特定飞行课程、跳伞或其他飞行体验。

跑道

Id 标题 侧风 逆风 侧风 %
10/28 124°-304° 7-10 kt 15-20 kt 44 %

逆风成分最大的方向会被突出显示,并用于横风计算。 这并不一定意味着这个方向在使用。

乌云

10.000 ft FEW 几云
14.000 ft BKN 碎云
22.000 ft BKN 碎云

温度 & 天气

温度 17 °C
露点 5 °C
相对湿度 45%
Kp-index 1 (0-9)

评论

SLP133海平面压力为29,92 inHg (29,92 inHg)
AC2AC3CI2 DENSITY ALT 3500FT

白天

日出
05:19
中午
13:40
日落
22:01 (8:39)

小工具

你想在你的网站上有一个关于Swan Hills Airport的当前航空天气(METAR)的小部件吗?

显示HTML代码
报告变更